sensor_id;sensor_type;location;lat;lon;timestamp;P1;durP1;ratioP1;P2;durP2;ratioP2
31206;SDS011;17834;52.992;8.856;2023-12-20T00:01:38;6.53;;;1.55;;
31206;SDS011;17834;52.992;8.856;2023-12-20T00:04:04;2.90;;;1.20;;
31206;SDS011;17834;52.992;8.856;2023-12-20T00:06:30;9.30;;;1.23;;
31206;SDS011;17834;52.992;8.856;2023-12-20T00:08:56;3.42;;;1.45;;
31206;SDS011;17834;52.992;8.856;2023-12-20T00:11:25;8.40;;;1.23;;
31206;SDS011;17834;52.992;8.856;2023-12-20T00:13:51;5.90;;;1.10;;
31206;SDS011;17834;52.992;8.856;2023-12-20T00:16:17;5.40;;;1.35;;
31206;SDS011;17834;52.992;8.856;2023-12-20T00:18:43;4.97;;;1.33;;
31206;SDS011;17834;52.992;8.856;2023-12-20T00:21:09;4.85;;;1.70;;
31206;SDS011;17834;52.992;8.856;2023-12-20T00:23:35;14.20;;;2.08;;
31206;SDS011;17834;52.992;8.856;2023-12-20T00:26:01;4.80;;;1.38;;
31206;SDS011;17834;52.992;8.856;2023-12-20T00:28:27;5.40;;;1.52;;
31206;SDS011;17834;52.992;8.856;2023-12-20T00:30:53;5.70;;;1.98;;
31206;SDS011;17834;52.992;8.856;2023-12-20T00:33:19;2.40;;;1.13;;
31206;SDS011;17834;52.992;8.856;2023-12-20T00:35:45;6.03;;;1.60;;
31206;SDS011;17834;52.992;8.856;2023-12-20T00:38:10;2.22;;;1.20;;
31206;SDS011;17834;52.992;8.856;2023-12-20T00:40:37;1.92;;;1.23;;
31206;SDS011;17834;52.992;8.856;2023-12-20T00:43:03;9.02;;;1.33;;
31206;SDS011;17834;52.992;8.856;2023-12-20T00:45:29;2.58;;;1.25;;
31206;SDS011;17834;52.992;8.856;2023-12-20T00:47:55;2.20;;;1.10;;
31206;SDS011;17834;52.992;8.856;2023-12-20T00:50:21;3.78;;;1.63;;
31206;SDS011;17834;52.992;8.856;2023-12-20T00:52:47;9.68;;;1.63;;
31206;SDS011;17834;52.992;8.856;2023-12-20T00:55:13;3.47;;;1.27;;
31206;SDS011;17834;52.992;8.856;2023-12-20T00:57:39;13.30;;;1.98;;
31206;SDS011;17834;52.992;8.856;2023-12-20T01:00:05;5.00;;;1.35;;
31206;SDS011;17834;52.992;8.856;2023-12-20T01:02:32;5.85;;;0.95;;
31206;SDS011;17834;52.992;8.856;2023-12-20T01:04:58;8.00;;;1.80;;
31206;SDS011;17834;52.992;8.856;2023-12-20T01:07:24;4.60;;;1.27;;
31206;SDS011;17834;52.992;8.856;2023-12-20T01:09:50;4.03;;;1.15;;
31206;SDS011;17834;52.992;8.856;2023-12-20T01:12:16;6.65;;;1.40;;
31206;SDS011;17834;52.992;8.856;2023-12-20T01:14:42;3.33;;;1.10;;
31206;SDS011;17834;52.992;8.856;2023-12-20T01:17:08;3.17;;;1.30;;
31206;SDS011;17834;52.992;8.856;2023-12-20T01:19:34;11.95;;;1.38;;
31206;SDS011;17834;52.992;8.856;2023-12-20T01:22:00;8.52;;;1.70;;
31206;SDS011;17834;52.992;8.856;2023-12-20T01:24:26;4.85;;;1.35;;
31206;SDS011;17834;52.992;8.856;2023-12-20T01:26:52;3.30;;;0.93;;
31206;SDS011;17834;52.992;8.856;2023-12-20T01:29:18;6.63;;;1.75;;
31206;SDS011;17834;52.992;8.856;2023-12-20T01:31:44;4.13;;;1.10;;
31206;SDS011;17834;52.992;8.856;2023-12-20T01:34:10;7.88;;;1.75;;
31206;SDS011;17834;52.992;8.856;2023-12-20T01:36:36;6.70;;;1.20;;
31206;SDS011;17834;52.992;8.856;2023-12-20T01:39:02;7.20;;;1.20;;
31206;SDS011;17834;52.992;8.856;2023-12-20T01:41:27;3.75;;;1.60;;
31206;SDS011;17834;52.992;8.856;2023-12-20T01:43:53;4.85;;;1.58;;
31206;SDS011;17834;52.992;8.856;2023-12-20T01:46:19;6.63;;;1.70;;
31206;SDS011;17834;52.992;8.856;2023-12-20T01:48:46;3.88;;;1.40;;
31206;SDS011;17834;52.992;8.856;2023-12-20T01:51:12;2.83;;;1.35;;
31206;SDS011;17834;52.992;8.856;2023-12-20T01:53:38;5.10;;;1.75;;
31206;SDS011;17834;52.992;8.856;2023-12-20T01:56:04;11.55;;;1.67;;
31206;SDS011;17834;52.992;8.856;2023-12-20T01:58:30;4.90;;;1.92;;
31206;SDS011;17834;52.992;8.856;2023-12-20T02:00:56;4.47;;;1.42;;
31206;SDS011;17834;52.992;8.856;2023-12-20T02:03:23;5.35;;;1.20;;
31206;SDS011;17834;52.992;8.856;2023-12-20T02:05:49;11.68;;;1.75;;
31206;SDS011;17834;52.992;8.856;2023-12-20T02:08:15;3.95;;;1.48;;
31206;SDS011;17834;52.992;8.856;2023-12-20T02:10:41;4.10;;;1.92;;
31206;SDS011;17834;52.992;8.856;2023-12-20T02:13:07;7.60;;;1.48;;
31206;SDS011;17834;52.992;8.856;2023-12-20T02:15:33;5.07;;;2.10;;
31206;SDS011;17834;52.992;8.856;2023-12-20T02:18:01;7.40;;;1.75;;
31206;SDS011;17834;52.992;8.856;2023-12-20T02:20:27;6.13;;;1.40;;
31206;SDS011;17834;52.992;8.856;2023-12-20T02:22:53;8.82;;;2.42;;
31206;SDS011;17834;52.992;8.856;2023-12-20T02:25:19;12.90;;;2.05;;
31206;SDS011;17834;52.992;8.856;2023-12-20T02:27:45;6.53;;;1.70;;
31206;SDS011;17834;52.992;8.856;2023-12-20T02:30:11;8.98;;;1.50;;
31206;SDS011;17834;52.992;8.856;2023-12-20T02:32:37;3.60;;;1.70;;
31206;SDS011;17834;52.992;8.856;2023-12-20T02:35:03;8.32;;;1.40;;
31206;SDS011;17834;52.992;8.856;2023-12-20T02:37:29;4.78;;;1.45;;
31206;SDS011;17834;52.992;8.856;2023-12-20T02:39:55;5.72;;;2.53;;
31206;SDS011;17834;52.992;8.856;2023-12-20T02:42:21;3.10;;;1.42;;
31206;SDS011;17834;52.992;8.856;2023-12-20T02:44:47;16.52;;;1.80;;
31206;SDS011;17834;52.992;8.856;2023-12-20T02:47:13;8.73;;;1.80;;
31206;SDS011;17834;52.992;8.856;2023-12-20T02:49:39;5.10;;;1.55;;
31206;SDS011;17834;52.992;8.856;2023-12-20T02:52:05;5.20;;;1.48;;
31206;SDS011;17834;52.992;8.856;2023-12-20T02:54:31;4.90;;;1.45;;
31206;SDS011;17834;52.992;8.856;2023-12-20T02:56:57;7.00;;;2.35;;
31206;SDS011;17834;52.992;8.856;2023-12-20T02:59:22;9.20;;;2.95;;
31206;SDS011;17834;52.992;8.856;2023-12-20T03:01:48;8.50;;;1.95;;
31206;SDS011;17834;52.992;8.856;2023-12-20T03:04:14;16.42;;;2.42;;
31206;SDS011;17834;52.992;8.856;2023-12-20T03:06:40;8.52;;;1.58;;
31206;SDS011;17834;52.992;8.856;2023-12-20T03:09:06;5.03;;;1.67;;
31206;SDS011;17834;52.992;8.856;2023-12-20T03:11:33;3.83;;;1.58;;
31206;SDS011;17834;52.992;8.856;2023-12-20T03:13:59;2.17;;;1.20;;
31206;SDS011;17834;52.992;8.856;2023-12-20T03:16:24;9.18;;;1.98;;
31206;SDS011;17834;52.992;8.856;2023-12-20T03:18:50;7.30;;;2.20;;
31206;SDS011;17834;52.992;8.856;2023-12-20T03:21:16;13.38;;;2.30;;
31206;SDS011;17834;52.992;8.856;2023-12-20T03:23:42;12.18;;;2.33;;
31206;SDS011;17834;52.992;8.856;2023-12-20T03:26:09;10.48;;;2.15;;
31206;SDS011;17834;52.992;8.856;2023-12-20T03:28:35;7.43;;;1.90;;
31206;SDS011;17834;52.992;8.856;2023-12-20T03:31:02;5.72;;;2.08;;
31206;SDS011;17834;52.992;8.856;2023-12-20T03:33:28;8.18;;;2.50;;
31206;SDS011;17834;52.992;8.856;2023-12-20T03:35:54;9.32;;;2.40;;
31206;SDS011;17834;52.992;8.856;2023-12-20T03:38:20;8.68;;;2.38;;
31206;SDS011;17834;52.992;8.856;2023-12-20T03:40:46;11.68;;;2.92;;
31206;SDS011;17834;52.992;8.856;2023-12-20T03:43:12;7.78;;;2.60;;
31206;SDS011;17834;52.992;8.856;2023-12-20T03:45:38;8.60;;;2.33;;
31206;SDS011;17834;52.992;8.856;2023-12-20T03:48:04;7.80;;;2.78;;
31206;SDS011;17834;52.992;8.856;2023-12-20T03:50:30;8.52;;;2.55;;
31206;SDS011;17834;52.992;8.856;2023-12-20T03:52:56;16.02;;;2.88;;
31206;SDS011;17834;52.992;8.856;2023-12-20T03:55:22;11.60;;;2.58;;
31206;SDS011;17834;52.992;8.856;2023-12-20T03:57:48;7.18;;;2.10;;
31206;SDS011;17834;52.992;8.856;2023-12-20T04:00:14;7.03;;;2.47;;
31206;SDS011;17834;52.992;8.856;2023-12-20T04:02:40;7.80;;;2.90;;
31206;SDS011;17834;52.992;8.856;2023-12-20T04:05:07;12.05;;;3.03;;
31206;SDS011;17834;52.992;8.856;2023-12-20T04:07:33;9.50;;;3.20;;
31206;SDS011;17834;52.992;8.856;2023-12-20T04:09:59;17.58;;;3.22;;
31206;SDS011;17834;52.992;8.856;2023-12-20T04:12:25;13.45;;;4.05;;
31206;SDS011;17834;52.992;8.856;2023-12-20T04:14:51;9.32;;;4.03;;
31206;SDS011;17834;52.992;8.856;2023-12-20T04:17:17;15.05;;;3.38;;
31206;SDS011;17834;52.992;8.856;2023-12-20T04:19:43;8.30;;;3.65;;
31206;SDS011;17834;52.992;8.856;2023-12-20T04:22:09;7.50;;;3.28;;
31206;SDS011;17834;52.992;8.856;2023-12-20T04:24:35;8.15;;;3.22;;
31206;SDS011;17834;52.992;8.856;2023-12-20T04:27:01;10.20;;;3.55;;
31206;SDS011;17834;52.992;8.856;2023-12-20T04:29:27;11.15;;;3.17;;
31206;SDS011;17834;52.992;8.856;2023-12-20T04:31:53;7.13;;;3.65;;
31206;SDS011;17834;52.992;8.856;2023-12-20T04:34:19;7.30;;;3.28;;
31206;SDS011;17834;52.992;8.856;2023-12-20T04:36:45;16.20;;;3.20;;
31206;SDS011;17834;52.992;8.856;2023-12-20T04:39:12;13.93;;;3.42;;
31206;SDS011;17834;52.992;8.856;2023-12-20T04:41:40;15.45;;;5.13;;
31206;SDS011;17834;52.992;8.856;2023-12-20T04:44:05;11.88;;;4.10;;
31206;SDS011;17834;52.992;8.856;2023-12-20T04:46:31;15.80;;;3.50;;
31206;SDS011;17834;52.992;8.856;2023-12-20T04:48:57;13.07;;;3.45;;
31206;SDS011;17834;52.992;8.856;2023-12-20T04:51:23;22.67;;;3.70;;
31206;SDS011;17834;52.992;8.856;2023-12-20T04:53:49;16.08;;;3.28;;
31206;SDS011;17834;52.992;8.856;2023-12-20T04:56:15;12.80;;;3.92;;
31206;SDS011;17834;52.992;8.856;2023-12-20T04:58:44;11.85;;;3.80;;
31206;SDS011;17834;52.992;8.856;2023-12-20T05:01:10;16.15;;;3.28;;
31206;SDS011;17834;52.992;8.856;2023-12-20T05:03:37;14.82;;;3.88;;
31206;SDS011;17834;52.992;8.856;2023-12-20T05:06:03;10.45;;;2.95;;
31206;SDS011;17834;52.992;8.856;2023-12-20T05:08:29;13.32;;;2.80;;
31206;SDS011;17834;52.992;8.856;2023-12-20T05:10:55;15.52;;;3.15;;
31206;SDS011;17834;52.992;8.856;2023-12-20T05:13:21;17.55;;;4.35;;
31206;SDS011;17834;52.992;8.856;2023-12-20T05:15:47;13.88;;;3.22;;
31206;SDS011;17834;52.992;8.856;2023-12-20T05:18:13;10.77;;;3.05;;
31206;SDS011;17834;52.992;8.856;2023-12-20T05:20:39;6.80;;;2.78;;
31206;SDS011;17834;52.992;8.856;2023-12-20T05:23:05;12.27;;;3.40;;
31206;SDS011;17834;52.992;8.856;2023-12-20T05:25:31;16.52;;;3.13;;
31206;SDS011;17834;52.992;8.856;2023-12-20T05:27:57;15.95;;;3.92;;
31206;SDS011;17834;52.992;8.856;2023-12-20T05:30:23;15.73;;;3.45;;
31206;SDS011;17834;52.992;8.856;2023-12-20T05:32:49;13.48;;;4.15;;
31206;SDS011;17834;52.992;8.856;2023-12-20T05:35:16;12.30;;;3.30;;
31206;SDS011;17834;52.992;8.856;2023-12-20T05:37:44;13.77;;;3.58;;
31206;SDS011;17834;52.992;8.856;2023-12-20T05:40:10;22.05;;;3.40;;
31206;SDS011;17834;52.992;8.856;2023-12-20T05:42:36;15.48;;;3.85;;
31206;SDS011;17834;52.992;8.856;2023-12-20T05:45:03;9.40;;;2.65;;
31206;SDS011;17834;52.992;8.856;2023-12-20T05:47:29;14.13;;;3.35;;
31206;SDS011;17834;52.992;8.856;2023-12-20T05:49:55;12.18;;;3.30;;
31206;SDS011;17834;52.992;8.856;2023-12-20T05:52:21;13.15;;;4.25;;
31206;SDS011;17834;52.992;8.856;2023-12-20T05:54:47;12.07;;;3.50;;
31206;SDS011;17834;52.992;8.856;2023-12-20T05:57:13;15.05;;;4.25;;
31206;SDS011;17834;52.992;8.856;2023-12-20T05:59:39;17.83;;;3.20;;
31206;SDS011;17834;52.992;8.856;2023-12-20T06:02:05;20.67;;;5.63;;
31206;SDS011;17834;52.992;8.856;2023-12-20T06:04:31;9.75;;;2.40;;
31206;SDS011;17834;52.992;8.856;2023-12-20T06:06:57;12.93;;;2.85;;
31206;SDS011;17834;52.992;8.856;2023-12-20T06:09:23;15.95;;;2.80;;
31206;SDS011;17834;52.992;8.856;2023-12-20T06:11:49;12.75;;;2.80;;
31206;SDS011;17834;52.992;8.856;2023-12-20T06:14:16;14.68;;;3.20;;
31206;SDS011;17834;52.992;8.856;2023-12-20T06:16:42;13.27;;;3.40;;
31206;SDS011;17834;52.992;8.856;2023-12-20T06:19:08;15.23;;;3.83;;
31206;SDS011;17834;52.992;8.856;2023-12-20T06:21:34;9.07;;;2.80;;
31206;SDS011;17834;52.992;8.856;2023-12-20T06:24:00;19.13;;;3.22;;
31206;SDS011;17834;52.992;8.856;2023-12-20T06:26:26;19.17;;;3.35;;
31206;SDS011;17834;52.992;8.856;2023-12-20T06:28:52;23.58;;;3.95;;
31206;SDS011;17834;52.992;8.856;2023-12-20T06:31:18;15.50;;;3.83;;
31206;SDS011;17834;52.992;8.856;2023-12-20T06:33:44;9.93;;;3.67;;
31206;SDS011;17834;52.992;8.856;2023-12-20T06:36:13;12.80;;;3.30;;
31206;SDS011;17834;52.992;8.856;2023-12-20T06:38:39;16.05;;;4.57;;
31206;SDS011;17834;52.992;8.856;2023-12-20T06:41:05;17.83;;;3.72;;
31206;SDS011;17834;52.992;8.856;2023-12-20T06:43:31;10.63;;;3.47;;
31206;SDS011;17834;52.992;8.856;2023-12-20T06:45:58;13.73;;;3.10;;
31206;SDS011;17834;52.992;8.856;2023-12-20T06:48:24;7.80;;;3.15;;
31206;SDS011;17834;52.992;8.856;2023-12-20T06:58:27;21.50;;;6.85;;
31206;SDS011;17834;52.992;8.856;2023-12-20T07:00:56;11.57;;;3.83;;
31206;SDS011;17834;52.992;8.856;2023-12-20T07:03:23;19.25;;;4.05;;
31206;SDS011;17834;52.992;8.856;2023-12-20T07:05:49;16.58;;;4.38;;
31206;SDS011;17834;52.992;8.856;2023-12-20T07:08:15;13.35;;;4.35;;
31206;SDS011;17834;52.992;8.856;2023-12-20T07:10:41;10.77;;;3.40;;
31206;SDS011;17834;52.992;8.856;2023-12-20T07:13:07;17.70;;;4.63;;
31206;SDS011;17834;52.992;8.856;2023-12-20T07:15:34;14.55;;;4.82;;
31206;SDS011;17834;52.992;8.856;2023-12-20T07:18:01;17.50;;;3.78;;
31206;SDS011;17834;52.992;8.856;2023-12-20T07:20:28;9.73;;;4.20;;
31206;SDS011;17834;52.992;8.856;2023-12-20T07:22:54;20.80;;;3.60;;
31206;SDS011;17834;52.992;8.856;2023-12-20T07:25:20;18.45;;;3.67;;
31206;SDS011;17834;52.992;8.856;2023-12-20T07:27:47;19.98;;;3.97;;
31206;SDS011;17834;52.992;8.856;2023-12-20T07:30:13;11.82;;;3.95;;
31206;SDS011;17834;52.992;8.856;2023-12-20T07:32:39;17.45;;;3.80;;
31206;SDS011;17834;52.992;8.856;2023-12-20T07:35:05;16.50;;;3.75;;
31206;SDS011;17834;52.992;8.856;2023-12-20T07:37:31;23.40;;;4.25;;
31206;SDS011;17834;52.992;8.856;2023-12-20T07:39:57;21.42;;;4.90;;
31206;SDS011;17834;52.992;8.856;2023-12-20T07:42:23;14.68;;;3.80;;
31206;SDS011;17834;52.992;8.856;2023-12-20T07:44:49;15.93;;;4.15;;
31206;SDS011;17834;52.992;8.856;2023-12-20T07:47:15;13.88;;;3.42;;
31206;SDS011;17834;52.992;8.856;2023-12-20T07:49:46;10.90;;;3.95;;
31206;SDS011;17834;52.992;8.856;2023-12-20T07:52:12;17.50;;;3.75;;
31206;SDS011;17834;52.992;8.856;2023-12-20T07:54:38;20.45;;;5.47;;
31206;SDS011;17834;52.992;8.856;2023-12-20T07:57:04;12.82;;;3.38;;
31206;SDS011;17834;52.992;8.856;2023-12-20T07:59:30;28.08;;;3.97;;
31206;SDS011;17834;52.992;8.856;2023-12-20T08:01:56;12.32;;;3.80;;
31206;SDS011;17834;52.992;8.856;2023-12-20T08:04:23;20.38;;;4.20;;
31206;SDS011;17834;52.992;8.856;2023-12-20T08:06:49;11.57;;;3.75;;
31206;SDS011;17834;52.992;8.856;2023-12-20T08:09:15;14.85;;;3.10;;
31206;SDS011;17834;52.992;8.856;2023-12-20T08:11:44;17.35;;;3.67;;
31206;SDS011;17834;52.992;8.856;2023-12-20T08:14:10;14.23;;;3.22;;
31206;SDS011;17834;52.992;8.856;2023-12-20T08:16:37;15.70;;;4.05;;
31206;SDS011;17834;52.992;8.856;2023-12-20T08:19:03;15.07;;;2.95;;
31206;SDS011;17834;52.992;8.856;2023-12-20T08:21:29;9.50;;;3.30;;
31206;SDS011;17834;52.992;8.856;2023-12-20T08:23:55;20.17;;;3.38;;
31206;SDS011;17834;52.992;8.856;2023-12-20T08:26:21;15.38;;;3.45;;
31206;SDS011;17834;52.992;8.856;2023-12-20T08:28:49;17.27;;;3.40;;
31206;SDS011;17834;52.992;8.856;2023-12-20T08:31:16;21.50;;;4.07;;
31206;SDS011;17834;52.992;8.856;2023-12-20T08:33:46;20.67;;;3.85;;
31206;SDS011;17834;52.992;8.856;2023-12-20T08:36:12;17.90;;;3.92;;
31206;SDS011;17834;52.992;8.856;2023-12-20T08:38:41;12.60;;;2.78;;
31206;SDS011;17834;52.992;8.856;2023-12-20T08:41:09;14.98;;;3.92;;
31206;SDS011;17834;52.992;8.856;2023-12-20T08:43:35;21.85;;;4.22;;
31206;SDS011;17834;52.992;8.856;2023-12-20T08:46:01;20.08;;;4.45;;
31206;SDS011;17834;52.992;8.856;2023-12-20T08:48:28;13.02;;;3.30;;
31206;SDS011;17834;52.992;8.856;2023-12-20T08:50:54;10.80;;;2.83;;
31206;SDS011;17834;52.992;8.856;2023-12-20T08:53:20;16.48;;;3.75;;
31206;SDS011;17834;52.992;8.856;2023-12-20T08:55:47;16.55;;;3.85;;
31206;SDS011;17834;52.992;8.856;2023-12-20T08:58:13;12.07;;;2.70;;
31206;SDS011;17834;52.992;8.856;2023-12-20T09:00:41;11.30;;;2.45;;
31206;SDS011;17834;52.992;8.856;2023-12-20T09:03:07;17.27;;;4.00;;
31206;SDS011;17834;52.992;8.856;2023-12-20T09:05:33;17.83;;;4.32;;
31206;SDS011;17834;52.992;8.856;2023-12-20T09:07:59;16.60;;;3.40;;
31206;SDS011;17834;52.992;8.856;2023-12-20T09:10:25;15.70;;;3.58;;
31206;SDS011;17834;52.992;8.856;2023-12-20T09:12:52;20.70;;;5.05;;
31206;SDS011;17834;52.992;8.856;2023-12-20T09:15:21;16.30;;;4.07;;
31206;SDS011;17834;52.992;8.856;2023-12-20T09:20:16;15.35;;;3.08;;
31206;SDS011;17834;52.992;8.856;2023-12-20T09:22:42;10.98;;;2.88;;
31206;SDS011;17834;52.992;8.856;2023-12-20T09:25:09;8.98;;;3.33;;
31206;SDS011;17834;52.992;8.856;2023-12-20T09:27:35;15.15;;;3.92;;
31206;SDS011;17834;52.992;8.856;2023-12-20T09:30:01;17.73;;;3.17;;
31206;SDS011;17834;52.992;8.856;2023-12-20T09:32:27;16.10;;;3.15;;
31206;SDS011;17834;52.992;8.856;2023-12-20T09:34:54;24.88;;;4.38;;
31206;SDS011;17834;52.992;8.856;2023-12-20T09:37:20;11.90;;;3.33;;
31206;SDS011;17834;52.992;8.856;2023-12-20T09:39:47;12.45;;;2.95;;
31206;SDS011;17834;52.992;8.856;2023-12-20T09:42:13;13.18;;;3.53;;
31206;SDS011;17834;52.992;8.856;2023-12-20T09:44:40;20.55;;;4.90;;
31206;SDS011;17834;52.992;8.856;2023-12-20T09:47:07;15.02;;;3.05;;
31206;SDS011;17834;52.992;8.856;2023-12-20T09:49:33;24.42;;;2.88;;
31206;SDS011;17834;52.992;8.856;2023-12-20T09:52:01;9.77;;;2.80;;
31206;SDS011;17834;52.992;8.856;2023-12-20T09:54:28;8.82;;;3.38;;
31206;SDS011;17834;52.992;8.856;2023-12-20T09:56:55;9.82;;;2.33;;
31206;SDS011;17834;52.992;8.856;2023-12-20T09:59:21;13.10;;;3.03;;
31206;SDS011;17834;52.992;8.856;2023-12-20T10:01:47;12.88;;;2.30;;
31206;SDS011;17834;52.992;8.856;2023-12-20T10:04:14;3.60;;;1.00;;
31206;SDS011;17834;52.992;8.856;2023-12-20T10:06:42;3.30;;;1.00;;
31206;SDS011;17834;52.992;8.856;2023-12-20T10:09:11;3.88;;;1.02;;
31206;SDS011;17834;52.992;8.856;2023-12-20T10:11:38;2.08;;;0.90;;
31206;SDS011;17834;52.992;8.856;2023-12-20T10:14:04;7.57;;;1.08;;
31206;SDS011;17834;52.992;8.856;2023-12-20T10:16:31;2.88;;;1.52;;
31206;SDS011;17834;52.992;8.856;2023-12-20T10:18:57;2.97;;;0.90;;
31206;SDS011;17834;52.992;8.856;2023-12-20T10:21:24;2.67;;;0.95;;
31206;SDS011;17834;52.992;8.856;2023-12-20T10:23:51;0.93;;;0.68;;
31206;SDS011;17834;52.992;8.856;2023-12-20T10:26:21;2.25;;;0.90;;
31206;SDS011;17834;52.992;8.856;2023-12-20T10:28:51;0.95;;;0.75;;
31206;SDS011;17834;52.992;8.856;2023-12-20T10:33:53;5.60;;;0.90;;
31206;SDS011;17834;52.992;8.856;2023-12-20T10:36:21;4.45;;;0.70;;
31206;SDS011;17834;52.992;8.856;2023-12-20T10:38:48;1.88;;;0.80;;
31206;SDS011;17834;52.992;8.856;2023-12-20T10:41:17;2.17;;;0.70;;
31206;SDS011;17834;52.992;8.856;2023-12-20T10:43:44;4.00;;;1.17;;
31206;SDS011;17834;52.992;8.856;2023-12-20T10:46:11;4.70;;;0.90;;
31206;SDS011;17834;52.992;8.856;2023-12-20T10:48:37;0.63;;;0.60;;
31206;SDS011;17834;52.992;8.856;2023-12-20T10:51:05;5.28;;;1.10;;
31206;SDS011;17834;52.992;8.856;2023-12-20T10:53:31;3.70;;;0.98;;
31206;SDS011;17834;52.992;8.856;2023-12-20T10:55:59;2.53;;;0.70;;
31206;SDS011;17834;52.992;8.856;2023-12-20T12:26:33;3.75;;;1.00;;
31206;SDS011;17834;52.992;8.856;2023-12-20T12:28:59;3.95;;;2.08;;
31206;SDS011;17834;52.992;8.856;2023-12-20T12:31:25;8.30;;;1.85;;
31206;SDS011;17834;52.992;8.856;2023-12-20T12:33:51;8.23;;;1.75;;
31206;SDS011;17834;52.992;8.856;2023-12-20T12:36:17;9.70;;;1.77;;
31206;SDS011;17834;52.992;8.856;2023-12-20T12:38:43;11.30;;;2.25;;
31206;SDS011;17834;52.992;8.856;2023-12-20T12:41:12;7.82;;;1.27;;
31206;SDS011;17834;52.992;8.856;2023-12-20T12:43:38;14.55;;;1.50;;
31206;SDS011;17834;52.992;8.856;2023-12-20T12:46:04;9.93;;;1.83;;
31206;SDS011;17834;52.992;8.856;2023-12-20T12:48:30;7.28;;;1.33;;
31206;SDS011;17834;52.992;8.856;2023-12-20T12:50:56;15.43;;;1.80;;
31206;SDS011;17834;52.992;8.856;2023-12-20T12:53:24;15.30;;;2.17;;
31206;SDS011;17834;52.992;8.856;2023-12-20T12:55:50;8.27;;;1.52;;
31206;SDS011;17834;52.992;8.856;2023-12-20T12:58:16;13.02;;;2.10;;
31206;SDS011;17834;52.992;8.856;2023-12-20T13:00:42;7.82;;;1.42;;
31206;SDS011;17834;52.992;8.856;2023-12-20T13:03:08;15.00;;;1.90;;
31206;SDS011;17834;52.992;8.856;2023-12-20T13:05:34;12.80;;;1.67;;
31206;SDS011;17834;52.992;8.856;2023-12-20T13:08:00;7.28;;;1.30;;
31206;SDS011;17834;52.992;8.856;2023-12-20T13:10:26;10.77;;;1.48;;
31206;SDS011;17834;52.992;8.856;2023-12-20T13:12:52;10.13;;;1.70;;
31206;SDS011;17834;52.992;8.856;2023-12-20T13:15:18;10.57;;;1.30;;
31206;SDS011;17834;52.992;8.856;2023-12-20T13:17:44;10.07;;;1.40;;
31206;SDS011;17834;52.992;8.856;2023-12-20T13:20:11;11.15;;;1.50;;
31206;SDS011;17834;52.992;8.856;2023-12-20T13:22:37;12.45;;;1.95;;
31206;SDS011;17834;52.992;8.856;2023-12-20T13:25:03;7.25;;;2.00;;
31206;SDS011;17834;52.992;8.856;2023-12-20T13:27:29;6.50;;;0.95;;
31206;SDS011;17834;52.992;8.856;2023-12-20T13:29:55;10.38;;;1.48;;
31206;SDS011;17834;52.992;8.856;2023-12-20T13:32:21;13.93;;;2.53;;
31206;SDS011;17834;52.992;8.856;2023-12-20T13:34:47;10.13;;;1.27;;
31206;SDS011;17834;52.992;8.856;2023-12-20T13:37:13;11.73;;;1.75;;
31206;SDS011;17834;52.992;8.856;2023-12-20T13:39:39;11.23;;;1.92;;
31206;SDS011;17834;52.992;8.856;2023-12-20T13:42:06;3.00;;;1.10;;
31206;SDS011;17834;52.992;8.856;2023-12-20T13:44:32;7.75;;;1.75;;
31206;SDS011;17834;52.992;8.856;2023-12-20T13:46:59;7.03;;;1.42;;
31206;SDS011;17834;52.992;8.856;2023-12-20T13:49:26;10.85;;;1.50;;
31206;SDS011;17834;52.992;8.856;2023-12-20T13:51:52;8.98;;;2.38;;
31206;SDS011;17834;52.992;8.856;2023-12-20T13:54:19;3.42;;;1.45;;
31206;SDS011;17834;52.992;8.856;2023-12-20T13:56:47;6.20;;;1.38;;
31206;SDS011;17834;52.992;8.856;2023-12-20T13:59:13;11.55;;;1.63;;
31206;SDS011;17834;52.992;8.856;2023-12-20T14:01:40;8.13;;;1.20;;
31206;SDS011;17834;52.992;8.856;2023-12-20T14:04:06;13.60;;;1.42;;
31206;SDS011;17834;52.992;8.856;2023-12-20T14:06:32;12.65;;;1.73;;
31206;SDS011;17834;52.992;8.856;2023-12-20T14:09:00;5.97;;;1.20;;
31206;SDS011;17834;52.992;8.856;2023-12-20T14:11:27;6.45;;;1.35;;
31206;SDS011;17834;52.992;8.856;2023-12-20T14:13:53;7.72;;;1.10;;
31206;SDS011;17834;52.992;8.856;2023-12-20T14:16:23;8.95;;;1.70;;
31206;SDS011;17834;52.992;8.856;2023-12-20T14:18:49;12.50;;;2.05;;
31206;SDS011;17834;52.992;8.856;2023-12-20T14:21:16;10.23;;;1.67;;
31206;SDS011;17834;52.992;8.856;2023-12-20T14:23:43;10.43;;;1.60;;
31206;SDS011;17834;52.992;8.856;2023-12-20T14:26:08;6.30;;;1.23;;
31206;SDS011;17834;52.992;8.856;2023-12-20T14:28:40;6.18;;;1.50;;
31206;SDS011;17834;52.992;8.856;2023-12-20T14:31:06;8.32;;;1.45;;
31206;SDS011;17834;52.992;8.856;2023-12-20T14:33:32;8.93;;;1.55;;
31206;SDS011;17834;52.992;8.856;2023-12-20T14:35:58;9.25;;;1.73;;
31206;SDS011;17834;52.992;8.856;2023-12-20T14:38:24;6.15;;;1.85;;
31206;SDS011;17834;52.992;8.856;2023-12-20T14:40:50;5.53;;;1.27;;
31206;SDS011;17834;52.992;8.856;2023-12-20T14:43:16;11.63;;;1.77;;
31206;SDS011;17834;52.992;8.856;2023-12-20T14:45:42;9.00;;;1.00;;
31206;SDS011;17834;52.992;8.856;2023-12-20T14:48:08;8.57;;;1.95;;
31206;SDS011;17834;52.992;8.856;2023-12-20T14:50:34;6.65;;;2.28;;
31206;SDS011;17834;52.992;8.856;2023-12-20T14:53:01;8.27;;;1.63;;
31206;SDS011;17834;52.992;8.856;2023-12-20T14:55:27;7.95;;;2.10;;
31206;SDS011;17834;52.992;8.856;2023-12-20T14:57:54;3.85;;;1.45;;
31206;SDS011;17834;52.992;8.856;2023-12-20T15:00:20;7.20;;;1.63;;
31206;SDS011;17834;52.992;8.856;2023-12-20T15:02:46;6.90;;;1.15;;
31206;SDS011;17834;52.992;8.856;2023-12-20T15:05:12;7.78;;;1.67;;
31206;SDS011;17834;52.992;8.856;2023-12-20T15:07:39;7.78;;;1.60;;
31206;SDS011;17834;52.992;8.856;2023-12-20T15:10:05;8.88;;;1.90;;
31206;SDS011;17834;52.992;8.856;2023-12-20T15:12:31;5.22;;;1.27;;
31206;SDS011;17834;52.992;8.856;2023-12-20T15:14:59;10.50;;;2.35;;
31206;SDS011;17834;52.992;8.856;2023-12-20T15:17:25;10.55;;;1.83;;
31206;SDS011;17834;52.992;8.856;2023-12-20T15:19:51;6.55;;;2.00;;
31206;SDS011;17834;52.992;8.856;2023-12-20T15:22:17;5.43;;;1.38;;
31206;SDS011;17834;52.992;8.856;2023-12-20T15:24:43;10.23;;;1.83;;
31206;SDS011;17834;52.992;8.856;2023-12-20T15:27:11;5.72;;;1.08;;
31206;SDS011;17834;52.992;8.856;2023-12-20T15:29:37;10.30;;;1.38;;
31206;SDS011;17834;52.992;8.856;2023-12-20T15:32:03;5.90;;;1.55;;
31206;SDS011;17834;52.992;8.856;2023-12-20T15:34:29;6.88;;;1.75;;
31206;SDS011;17834;52.992;8.856;2023-12-20T15:36:55;8.07;;;1.30;;
31206;SDS011;17834;52.992;8.856;2023-12-20T15:39:21;4.97;;;1.67;;
31206;SDS011;17834;52.992;8.856;2023-12-20T15:41:47;10.25;;;1.85;;
31206;SDS011;17834;52.992;8.856;2023-12-20T15:44:14;11.45;;;1.92;;
31206;SDS011;17834;52.992;8.856;2023-12-20T15:46:40;9.93;;;1.77;;
31206;SDS011;17834;52.992;8.856;2023-12-20T15:49:06;8.43;;;1.60;;
31206;SDS011;17834;52.992;8.856;2023-12-20T15:51:35;13.30;;;1.75;;
31206;SDS011;17834;52.992;8.856;2023-12-20T15:54:01;9.23;;;1.77;;
31206;SDS011;17834;52.992;8.856;2023-12-20T15:56:33;7.25;;;1.30;;
31206;SDS011;17834;52.992;8.856;2023-12-20T15:58:59;6.40;;;1.25;;
31206;SDS011;17834;52.992;8.856;2023-12-20T16:01:25;7.60;;;1.88;;
31206;SDS011;17834;52.992;8.856;2023-12-20T16:03:51;5.93;;;1.38;;
31206;SDS011;17834;52.992;8.856;2023-12-20T16:06:17;8.23;;;1.65;;
31206;SDS011;17834;52.992;8.856;2023-12-20T16:08:43;4.85;;;1.73;;
31206;SDS011;17834;52.992;8.856;2023-12-20T16:11:09;6.95;;;1.50;;
31206;SDS011;17834;52.992;8.856;2023-12-20T16:13:35;8.00;;;1.58;;
31206;SDS011;17834;52.992;8.856;2023-12-20T16:16:01;14.18;;;2.28;;